Time;durP1;ratioP1;P1;durP2;ratioP2;P2;SDS_P1;SDS_P2;PMS_P1;PMS_P2;Temp;Humidity;BMP_temperature;BMP_pressure;BME280_temperature;BME280_humidity;BME280_pressure;Samples;Min_cycle;Max_cycle;Signal;HPM_P1;HPM_P2
2024/01/20 00:02:17;;;;;;;;;;;0.80;99.90;;;;;;5105562;28;20005;-33
2024/01/20 00:04:44;;;;;;;;;;;0.70;99.90;;;;;;5113453;28;19928;-33
2024/01/20 00:07:12;;;;;;;;;;;0.80;99.90;;;;;;5086377;28;19934;-32
2024/01/20 00:09:39;;;;;;;;;;;0.80;99.90;;;;;;5092685;28;19923;-33
2024/01/20 00:12:06;;;;;;;;;;;0.70;99.90;;;;;;5096505;28;19969;-33
2024/01/20 00:14:32;;;;;;;;;;;0.70;99.90;;;;;;5094753;28;19924;-32
2024/01/20 00:16:59;;;;;;;;;;;0.70;99.90;;;;;;5089468;28;19923;-33
2024/01/20 00:19:26;;;;;;;;;;;0.70;99.90;;;;;;5082621;28;19936;-33
2024/01/20 00:21:52;;;;;;;;;;;0.70;99.90;;;;;;5095166;28;20291;-34
2024/01/20 00:24:20;;;;;;;;;;;0.80;99.90;;;;;;5095685;28;19977;-32
2024/01/20 00:26:47;;;;;;;;;;;0.70;99.90;;;;;;5111113;28;19924;-32
2024/01/20 00:29:13;;;;;;;;;;;0.60;99.90;;;;;;5113244;28;20194;-32
2024/01/20 00:31:40;;;;;;;;;;;0.60;99.90;;;;;;5112549;28;19930;-32
2024/01/20 00:34:07;;;;;;;;;;;0.60;99.90;;;;;;5113146;28;20385;-31
2024/01/20 00:36:34;;;;;;;;;;;0.50;99.90;;;;;;5095677;28;20022;-32
2024/01/20 00:39:01;;;;;;;;;;;0.50;99.90;;;;;;5110295;28;19996;-31
2024/01/20 00:41:29;;;;;;;;;;;0.60;99.90;;;;;;5093064;28;19924;-33
2024/01/20 00:43:55;;;;;;;;;;;0.50;99.90;;;;;;5111184;28;20375;-33
2024/01/20 00:46:22;;;;;;;;;;;0.50;99.90;;;;;;5093468;28;20045;-31
2024/01/20 00:48:49;;;;;;;;;;;0.50;99.90;;;;;;5090198;28;19975;-32
2024/01/20 00:51:15;;;;;;;;;;;0.50;99.90;;;;;;5095571;28;19994;-33
2024/01/20 00:53:42;;;;;;;;;;;0.50;99.90;;;;;;5093358;28;20035;-33
2024/01/20 00:56:09;;;;;;;;;;;0.40;99.90;;;;;;5093811;28;19977;-33
2024/01/20 00:58:37;;;;;;;;;;;0.40;99.90;;;;;;5094150;28;19988;-33
2024/01/20 01:01:04;;;;;;;;;;;0.40;99.90;;;;;;5093775;28;20272;-32
2024/01/20 01:03:30;;;;;;;;;;;0.40;99.90;;;;;;5109241;27;19931;-32
2024/01/20 01:05:57;;;;;;;;;;;0.40;99.90;;;;;;5113239;28;19923;-32
2024/01/20 01:08:23;;;;;;;;;;;0.30;99.90;;;;;;5113378;27;19980;-32
2024/01/20 01:10:50;;;;;;;;;;;0.30;99.90;;;;;;5132286;27;20032;-32
2024/01/20 01:13:17;;;;;;;;;;;0.30;99.90;;;;;;5114829;27;20032;-32
2024/01/20 01:15:45;;;;;;;;;;;0.30;99.90;;;;;;5115098;27;19927;-34
2024/01/20 01:18:11;;;;;;;;;;;0.30;99.90;;;;;;5114496;27;19950;-32
2024/01/20 01:20:38;;;;;;;;;;;0.20;99.90;;;;;;5113752;27;19927;-32
2024/01/20 01:23:05;;;;;;;;;;;0.20;99.90;;;;;;5111966;27;19929;-31
2024/01/20 01:25:31;;;;;;;;;;;0.20;99.90;;;;;;5114603;27;19979;-32
2024/01/20 01:27:58;;;;;;;;;;;0.20;99.90;;;;;;5115093;27;19923;-33
2024/01/20 01:30:25;;;;;;;;;;;0.20;99.90;;;;;;5131584;27;20406;-32
2024/01/20 01:32:53;;;;;;;;;;;0.20;99.90;;;;;;5131141;27;19976;-32
2024/01/20 01:35:19;;;;;;;;;;;0.20;99.90;;;;;;5131650;27;19923;-32
2024/01/20 01:37:46;;;;;;;;;;;0.20;99.90;;;;;;5112774;28;19928;-31
2024/01/20 01:40:13;;;;;;;;;;;0.20;99.90;;;;;;5132990;27;19924;-32
2024/01/20 01:42:40;;;;;;;;;;;0.20;99.90;;;;;;5113594;27;19924;-32
2024/01/20 01:45:07;;;;;;;;;;;0.10;99.90;;;;;;5114198;27;19924;-33
2024/01/20 01:47:34;;;;;;;;;;;0.10;99.90;;;;;;5114726;28;19971;-31
2024/01/20 01:50:02;;;;;;;;;;;0.10;99.90;;;;;;5132062;28;20375;-31
2024/01/20 01:52:28;;;;;;;;;;;0.10;99.90;;;;;;5111908;28;20371;-31
2024/01/20 01:54:55;;;;;;;;;;;0.10;99.90;;;;;;5113852;28;19923;-31
2024/01/20 01:57:22;;;;;;;;;;;0.10;99.90;;;;;;5112702;28;19927;-32
2024/01/20 01:59:48;;;;;;;;;;;0.10;99.90;;;;;;5132482;28;19924;-31
2024/01/20 02:02:15;;;;;;;;;;;0.10;99.90;;;;;;5113619;28;20374;-33
2024/01/20 02:04:42;;;;;;;;;;;0.10;99.90;;;;;;5113736;28;19928;-33
2024/01/20 02:07:10;;;;;;;;;;;0.00;99.90;;;;;;5130446;28;19924;-32
2024/01/20 02:09:36;;;;;;;;;;;0.10;99.90;;;;;;5113929;28;20011;-31
2024/01/20 02:12:03;;;;;;;;;;;0.10;99.90;;;;;;5131396;28;19923;-31
2024/01/20 02:14:30;;;;;;;;;;;0.10;99.90;;;;;;5113107;28;20000;-31
2024/01/20 02:16:57;;;;;;;;;;;0.10;99.90;;;;;;5113242;27;19976;-33
2024/01/20 02:19:23;;;;;;;;;;;0.10;99.90;;;;;;5117214;27;19923;-31
2024/01/20 02:21:50;;;;;;;;;;;0.10;99.90;;;;;;5130472;27;19992;-32
2024/01/20 02:24:18;;;;;;;;;;;0.10;99.90;;;;;;5118699;27;19972;-32
2024/01/20 02:26:45;;;;;;;;;;;0.10;99.90;;;;;;5116772;27;19971;-31
2024/01/20 02:29:12;;;;;;;;;;;0.10;99.90;;;;;;5117034;27;20144;-32
2024/01/20 02:31:38;;;;;;;;;;;0.10;99.90;;;;;;5117307;27;19924;-32
2024/01/20 02:34:05;;;;;;;;;;;0.10;99.90;;;;;;5117977;27;20303;-32
2024/01/20 02:36:32;;;;;;;;;;;0.10;99.90;;;;;;5115565;27;19931;-33
2024/01/20 02:38:58;;;;;;;;;;;0.10;99.90;;;;;;5118047;27;20332;-33
2024/01/20 02:41:26;;;;;;;;;;;0.20;99.90;;;;;;5116409;27;19932;-32
2024/01/20 02:43:53;;;;;;;;;;;0.20;99.90;;;;;;5136030;27;19968;-33
2024/01/20 02:46:19;;;;;;;;;;;0.20;99.90;;;;;;5117351;27;19968;-32
2024/01/20 02:48:46;;;;;;;;;;;0.20;99.90;;;;;;5117297;27;19980;-31
2024/01/20 02:51:13;;;;;;;;;;;0.10;99.90;;;;;;5134216;27;19970;-32
2024/01/20 02:53:39;;;;;;;;;;;0.10;99.90;;;;;;5117817;27;19923;-32
2024/01/20 02:56:06;;;;;;;;;;;0.20;99.90;;;;;;5116562;27;19984;-32
2024/01/20 02:58:34;;;;;;;;;;;0.20;99.90;;;;;;5135134;27;19969;-32
2024/01/20 03:01:02;;;;;;;;;;;0.20;99.90;;;;;;5116231;27;19980;-32
2024/01/20 03:03:28;;;;;;;;;;;0.20;99.90;;;;;;5130178;27;19971;-31
2024/01/20 03:05:55;;;;;;;;;;;0.10;99.90;;;;;;5134236;27;19923;-31
2024/01/20 03:08:22;;;;;;;;;;;0.20;99.90;;;;;;5116726;27;19995;-32
2024/01/20 03:10:48;;;;;;;;;;;0.20;99.90;;;;;;5116865;27;19923;-32
2024/01/20 03:13:15;;;;;;;;;;;0.20;99.90;;;;;;5116829;27;20158;-32
2024/01/20 03:15:43;;;;;;;;;;;0.10;99.90;;;;;;5116788;27;19927;-30
2024/01/20 03:18:10;;;;;;;;;;;0.10;99.90;;;;;;5135869;27;19931;-32
2024/01/20 03:20:40;;;;;;;;;;;0.20;99.90;;;;;;5114136;27;19924;-32
2024/01/20 03:23:07;;;;;;;;;;;0.10;99.90;;;;;;5116222;27;19928;-31
2024/01/20 03:25:33;;;;;;;;;;;0.10;99.90;;;;;;5116026;27;19923;-33
2024/01/20 03:28:00;;;;;;;;;;;0.10;99.90;;;;;;5116101;27;19980;-32
2024/01/20 03:30:27;;;;;;;;;;;0.10;99.90;;;;;;5116510;27;19930;-32
2024/01/20 03:32:55;;;;;;;;;;;0.00;99.90;;;;;;5134540;27;19975;-32
2024/01/20 03:35:22;;;;;;;;;;;0.00;99.90;;;;;;5109474;27;19976;-31
2024/01/20 03:37:49;;;;;;;;;;;0.00;99.90;;;;;;5116180;27;19938;-31
2024/01/20 03:40:16;;;;;;;;;;;0.00;99.90;;;;;;5116243;27;19923;-32
2024/01/20 03:42:42;;;;;;;;;;;-0.10;99.90;;;;;;5116974;27;19928;-32
2024/01/20 03:45:09;;;;;;;;;;;-0.10;99.90;;;;;;5134403;27;19923;-33
2024/01/20 03:47:36;;;;;;;;;;;-0.10;99.90;;;;;;5134082;27;20021;-32
2024/01/20 03:50:05;;;;;;;;;;;-0.10;99.90;;;;;;5112535;27;19927;-31
2024/01/20 03:52:31;;;;;;;;;;;-0.20;99.90;;;;;;5106880;27;20382;-32
2024/01/20 03:54:58;;;;;;;;;;;-0.10;99.90;;;;;;5115934;27;19923;-31
2024/01/20 03:57:25;;;;;;;;;;;-0.10;99.90;;;;;;5115580;27;19972;-32
2024/01/20 03:59:51;;;;;;;;;;;-0.10;99.90;;;;;;5134495;27;19927;-32
2024/01/20 04:02:18;;;;;;;;;;;-0.10;99.90;;;;;;5113503;27;19964;-32
2024/01/20 04:04:45;;;;;;;;;;;-0.10;99.90;;;;;;5131703;27;20339;-34
2024/01/20 04:07:13;;;;;;;;;;;0.00;99.90;;;;;;5116145;27;20010;-31
2024/01/20 04:09:39;;;;;;;;;;;0.00;99.90;;;;;;5114914;27;19923;-32
2024/01/20 04:12:06;;;;;;;;;;;0.00;99.90;;;;;;5115386;27;19924;-32
2024/01/20 04:14:33;;;;;;;;;;;0.00;99.90;;;;;;5115676;27;19953;-33
2024/01/20 04:17:00;;;;;;;;;;;0.00;99.90;;;;;;5114571;27;19982;-32
2024/01/20 04:19:26;;;;;;;;;;;0.00;99.90;;;;;;5113977;27;20363;-32
2024/01/20 04:21:53;;;;;;;;;;;0.00;99.90;;;;;;5114867;27;20011;-32
2024/01/20 04:24:21;;;;;;;;;;;0.00;99.90;;;;;;5134075;27;19923;-32
2024/01/20 04:26:47;;;;;;;;;;;0.00;99.90;;;;;;5131866;27;19923;-31
2024/01/20 04:29:14;;;;;;;;;;;0.00;99.90;;;;;;5133058;27;19923;-33
2024/01/20 04:31:41;;;;;;;;;;;-0.10;99.90;;;;;;5115922;27;20000;-32
2024/01/20 04:34:07;;;;;;;;;;;-0.10;99.90;;;;;;5113936;27;19923;-32
2024/01/20 04:36:34;;;;;;;;;;;-0.10;99.90;;;;;;5115878;27;20333;-33
2024/01/20 04:39:00;;;;;;;;;;;-0.10;99.90;;;;;;5131217;27;20362;-34
2024/01/20 04:41:28;;;;;;;;;;;-0.10;99.90;;;;;;5115095;27;19983;-32
2024/01/20 04:43:55;;;;;;;;;;;-0.20;99.90;;;;;;5123132;27;19927;-32
2024/01/20 04:46:22;;;;;;;;;;;-0.20;99.90;;;;;;5115682;27;19931;-33
2024/01/20 04:48:48;;;;;;;;;;;-0.20;99.90;;;;;;5112692;27;20378;-33
2024/01/20 04:51:15;;;;;;;;;;;-0.10;99.90;;;;;;5112836;27;19966;-32
2024/01/20 04:53:41;;;;;;;;;;;-0.20;99.90;;;;;;5115797;27;19923;-33
2024/01/20 04:56:08;;;;;;;;;;;-0.20;99.90;;;;;;5132294;27;20391;-31
2024/01/20 04:58:37;;;;;;;;;;;-0.20;99.90;;;;;;5114477;27;20002;-33
2024/01/20 05:01:04;;;;;;;;;;;-0.20;99.90;;;;;;5112542;27;19976;-32
2024/01/20 05:03:30;;;;;;;;;;;-0.20;99.90;;;;;;5113566;27;19924;-33
2024/01/20 05:05:57;;;;;;;;;;;-0.20;99.90;;;;;;5114407;27;20314;-32
2024/01/20 05:08:24;;;;;;;;;;;-0.20;99.90;;;;;;5133263;27;19924;-32
2024/01/20 05:10:50;;;;;;;;;;;-0.20;99.90;;;;;;5112060;27;19927;-32
2024/01/20 05:13:17;;;;;;;;;;;-0.20;99.90;;;;;;5115112;27;19991;-33
2024/01/20 05:15:45;;;;;;;;;;;-0.30;99.90;;;;;;5114705;27;19923;-32
2024/01/20 05:18:12;;;;;;;;;;;-0.30;99.90;;;;;;5132107;27;20452;-32
2024/01/20 05:20:38;;;;;;;;;;;-0.30;99.90;;;;;;5132271;27;20428;-33
2024/01/20 05:23:05;;;;;;;;;;;-0.30;99.90;;;;;;5112843;27;19947;-32
2024/01/20 05:25:32;;;;;;;;;;;-0.40;99.90;;;;;;5112822;27;20344;-33
2024/01/20 05:27:58;;;;;;;;;;;-0.40;99.90;;;;;;5112150;27;19980;-33
2024/01/20 05:30:25;;;;;;;;;;;-0.40;99.90;;;;;;5114093;27;19955;-32
2024/01/20 05:32:53;;;;;;;;;;;-0.40;99.90;;;;;;5112706;28;19927;-34
2024/01/20 05:35:19;;;;;;;;;;;-0.40;99.90;;;;;;5114825;27;20684;-33
2024/01/20 05:37:46;;;;;;;;;;;-0.40;99.90;;;;;;5113099;27;19923;-33
2024/01/20 05:40:13;;;;;;;;;;;-0.50;99.90;;;;;;5114183;27;20403;-33
2024/01/20 05:42:39;;;;;;;;;;;-0.50;99.90;;;;;;5131101;27;19951;-32
2024/01/20 05:45:09;;;;;;;;;;;-0.50;99.90;;;;;;5131301;27;20327;-33
2024/01/20 05:47:35;;;;;;;;;;;-0.50;99.90;;;;;;5112097;28;19932;-33
2024/01/20 05:50:03;;;;;;;;;;;-0.40;99.90;;;;;;5110620;28;19960;-32
2024/01/20 05:52:30;;;;;;;;;;;-0.40;99.90;;;;;;5112824;28;19976;-33
2024/01/20 05:54:57;;;;;;;;;;;-0.50;99.90;;;;;;5131059;28;19984;-32
2024/01/20 05:57:23;;;;;;;;;;;-0.50;99.90;;;;;;5114061;28;19927;-32
2024/01/20 05:59:50;;;;;;;;;;;-0.50;99.90;;;;;;5112147;28;19924;-32
2024/01/20 06:02:17;;;;;;;;;;;-0.50;99.90;;;;;;5106829;28;19977;-32
2024/01/20 06:04:43;;;;;;;;;;;-0.50;99.90;;;;;;5132133;28;19993;-32
2024/01/20 06:07:11;;;;;;;;;;;-0.50;99.90;;;;;;5114608;28;19923;-31
2024/01/20 06:09:38;;;;;;;;;;;-0.50;99.90;;;;;;5112615;28;19923;-33
2024/01/20 06:12:05;;;;;;;;;;;-0.40;99.90;;;;;;5111674;28;19923;-31
2024/01/20 06:14:32;;;;;;;;;;;-0.50;99.90;;;;;;5112673;28;19923;-32
2024/01/20 06:16:58;;;;;;;;;;;-0.50;99.90;;;;;;5131474;28;20352;-33
2024/01/20 06:19:25;;;;;;;;;;;-0.50;99.90;;;;;;5113544;28;20340;-31
2024/01/20 06:21:52;;;;;;;;;;;-0.50;99.90;;;;;;5132415;28;19953;-32
2024/01/20 06:24:19;;;;;;;;;;;-0.50;99.90;;;;;;5131403;28;20329;-32
2024/01/20 06:26:46;;;;;;;;;;;-0.50;99.90;;;;;;5111330;28;20011;-32
2024/01/20 06:29:13;;;;;;;;;;;-0.50;99.90;;;;;;5110245;28;19967;-32
2024/01/20 06:31:39;;;;;;;;;;;-0.50;99.90;;;;;;5113038;28;19977;-32
2024/01/20 06:34:06;;;;;;;;;;;-0.50;99.90;;;;;;5094486;28;20011;-33
2024/01/20 06:36:33;;;;;;;;;;;-0.50;99.90;;;;;;5131047;28;19975;-33
2024/01/20 06:38:59;;;;;;;;;;;-0.50;99.90;;;;;;5112680;28;20275;-32
2024/01/20 06:41:27;;;;;;;;;;;-0.50;99.90;;;;;;5112986;28;19924;-34
2024/01/20 06:43:54;;;;;;;;;;;-0.50;99.90;;;;;;5111230;28;20367;-31
2024/01/20 06:46:21;;;;;;;;;;;-0.50;99.90;;;;;;5132776;28;19924;-32
2024/01/20 06:48:50;;;;;;;;;;;-0.50;99.90;;;;;;5113160;28;19974;-32
2024/01/20 06:51:17;;;;;;;;;;;-0.50;99.90;;;;;;5113285;28;20338;-32
2024/01/20 06:53:44;;;;;;;;;;;-0.50;99.90;;;;;;5131454;28;19927;-34
2024/01/20 06:56:11;;;;;;;;;;;-0.50;99.90;;;;;;5112299;28;19984;-32
2024/01/20 06:58:39;;;;;;;;;;;-0.50;99.90;;;;;;5111932;28;19923;-33
2024/01/20 07:01:05;;;;;;;;;;;-0.50;99.90;;;;;;5112957;28;19923;-32
2024/01/20 07:03:32;;;;;;;;;;;-0.40;99.90;;;;;;5130928;27;20341;-33
2024/01/20 07:05:59;;;;;;;;;;;-0.40;99.90;;;;;;5133787;27;20352;-32
2024/01/20 07:08:25;;;;;;;;;;;-0.40;99.90;;;;;;5115610;27;19931;-33
2024/01/20 07:10:52;;;;;;;;;;;-0.40;99.90;;;;;;5117569;27;19992;-32
2024/01/20 07:13:19;;;;;;;;;;;-0.40;99.90;;;;;;5114047;27;20432;-31
2024/01/20 07:15:47;;;;;;;;;;;-0.40;99.90;;;;;;5114032;27;19970;-32
2024/01/20 07:18:13;;;;;;;;;;;-0.50;99.90;;;;;;5105579;27;19980;-33
2024/01/20 07:20:40;;;;;;;;;;;-0.40;99.90;;;;;;5135048;27;19927;-33
2024/01/20 07:23:07;;;;;;;;;;;-0.40;99.90;;;;;;5116570;27;19935;-32
2024/01/20 07:25:36;;;;;;;;;;;-0.40;99.90;;;;;;5114728;27;20367;-33
2024/01/20 07:28:03;;;;;;;;;;;-0.40;99.90;;;;;;5114040;27;19931;-32
2024/01/20 07:30:29;;;;;;;;;;;-0.40;99.90;;;;;;5134389;27;19923;-32
2024/01/20 07:32:58;;;;;;;;;;;-0.40;99.90;;;;;;5133768;27;20388;-31
2024/01/20 07:35:25;;;;;;;;;;;-0.50;99.90;;;;;;5111521;27;19929;-32
2024/01/20 07:37:52;;;;;;;;;;;-0.40;99.90;;;;;;5135149;27;19968;-32
2024/01/20 07:40:19;;;;;;;;;;;-0.40;99.90;;;;;;5133516;27;19973;-31
2024/01/20 07:42:45;;;;;;;;;;;-0.40;99.90;;;;;;5131379;27;19923;-32
2024/01/20 07:45:12;;;;;;;;;;;-0.40;99.90;;;;;;5114869;27;20053;-33
2024/01/20 07:47:38;;;;;;;;;;;-0.40;99.90;;;;;;5114891;27;19927;-32
2024/01/20 07:50:07;;;;;;;;;;;-0.30;99.90;;;;;;5116058;27;19972;-31
2024/01/20 07:52:34;;;;;;;;;;;-0.30;99.90;;;;;;5131826;27;20325;-31
2024/01/20 07:55:01;;;;;;;;;;;-0.30;99.90;;;;;;5114247;27;20415;-32
2024/01/20 07:57:27;;;;;;;;;;;-0.40;99.90;;;;;;5131297;27;19995;-32
2024/01/20 07:59:54;;;;;;;;;;;-0.30;99.90;;;;;;5114257;27;20340;-32
2024/01/20 08:02:21;;;;;;;;;;;-0.20;99.90;;;;;;5107835;27;19959;-32
2024/01/20 08:04:47;;;;;;;;;;;-0.20;99.90;;;;;;5127394;27;20282;-31
2024/01/20 08:07:15;;;;;;;;;;;-0.20;99.90;;;;;;5112820;27;19979;-33
2024/01/20 08:09:42;;;;;;;;;;;-0.10;99.90;;;;;;5133407;27;19978;-32
2024/01/20 08:12:08;;;;;;;;;;;0.00;99.90;;;;;;5107626;27;19923;-32
2024/01/20 08:14:35;;;;;;;;;;;0.00;99.90;;;;;;5115310;27;19923;-33
2024/01/20 08:17:02;;;;;;;;;;;0.00;99.90;;;;;;5114638;27;19923;-33
2024/01/20 08:19:28;;;;;;;;;;;0.10;99.90;;;;;;5116219;27;19930;-32
2024/01/20 08:21:55;;;;;;;;;;;0.10;99.90;;;;;;5107968;28;19924;-32
2024/01/20 08:24:23;;;;;;;;;;;0.20;99.90;;;;;;5112401;27;20375;-33
2024/01/20 08:26:50;;;;;;;;;;;0.30;99.90;;;;;;5115307;27;19945;-33
2024/01/20 08:29:17;;;;;;;;;;;0.30;99.90;;;;;;5125425;27;19977;-33
2024/01/20 08:31:43;;;;;;;;;;;0.40;99.90;;;;;;5105507;28;20379;-32
2024/01/20 08:34:10;;;;;;;;;;;0.50;99.90;;;;;;5125495;27;19924;-33
2024/01/20 08:36:37;;;;;;;;;;;0.50;99.90;;;;;;5114542;27;19923;-33
2024/01/20 08:39:03;;;;;;;;;;;0.60;99.90;;;;;;5114551;27;19931;-32
2024/01/20 08:41:31;;;;;;;;;;;0.60;99.90;;;;;;5113124;27;19927;-32
2024/01/20 08:43:58;;;;;;;;;;;0.70;99.90;;;;;;5133019;27;20376;-34
2024/01/20 08:46:25;;;;;;;;;;;0.70;99.90;;;;;;5132461;27;19924;-33
2024/01/20 08:48:52;;;;;;;;;;;0.80;99.90;;;;;;5112988;27;19924;-31
2024/01/20 08:51:19;;;;;;;;;;;0.80;99.90;;;;;;5114338;27;19953;-31
2024/01/20 08:53:46;;;;;;;;;;;0.90;99.90;;;;;;5131079;27;20395;-33
2024/01/20 08:56:12;;;;;;;;;;;0.90;99.90;;;;;;5130263;27;20010;-32
2024/01/20 08:58:40;;;;;;;;;;;0.90;99.90;;;;;;5125948;27;19927;-31
2024/01/20 09:01:07;;;;;;;;;;;0.90;99.90;;;;;;5094978;28;19927;-33
2024/01/20 09:03:34;;;;;;;;;;;0.90;99.90;;;;;;5119601;27;19988;-32
2024/01/20 09:06:00;;;;;;;;;;;0.90;99.90;;;;;;5132555;27;19984;-33
2024/01/20 09:08:27;;;;;;;;;;;0.90;99.90;;;;;;5111220;27;19931;-33
2024/01/20 09:10:54;;;;;;;;;;;0.90;99.90;;;;;;5108486;27;20080;-32
2024/01/20 09:13:20;;;;;;;;;;;0.90;99.90;;;;;;5113711;27;19984;-32
2024/01/20 09:15:48;;;;;;;;;;;0.90;99.90;;;;;;5107384;28;19924;-31
2024/01/20 09:18:16;;;;;;;;;;;1.00;99.90;;;;;;5113873;27;19968;-33
2024/01/20 09:20:42;;;;;;;;;;;1.00;99.90;;;;;;5108390;27;20006;-32
2024/01/20 09:23:09;;;;;;;;;;;1.00;99.90;;;;;;5132556;27;19959;-32
2024/01/20 09:25:36;;;;;;;;;;;1.00;99.90;;;;;;5114588;27;19923;-32
2024/01/20 09:28:03;;;;;;;;;;;1.00;99.90;;;;;;5111023;27;19976;-32
2024/01/20 09:30:30;;;;;;;;;;;1.00;99.90;;;;;;5112079;27;20358;-32
2024/01/20 09:32:58;;;;;;;;;;;1.00;99.90;;;;;;5132394;27;19923;-33
2024/01/20 09:35:24;;;;;;;;;;;1.00;99.90;;;;;;5112513;27;19927;-32
2024/01/20 09:37:51;;;;;;;;;;;1.10;99.90;;;;;;5109520;27;19973;-33
2024/01/20 09:40:18;;;;;;;;;;;1.10;99.90;;;;;;5113143;27;19923;-32
2024/01/20 09:42:45;;;;;;;;;;;1.20;99.90;;;;;;5113732;27;19961;-32
2024/01/20 09:45:11;;;;;;;;;;;1.20;99.90;;;;;;5131379;27;19968;-33
2024/01/20 09:47:38;;;;;;;;;;;1.20;99.90;;;;;;5111949;28;19927;-32
2024/01/20 09:50:07;;;;;;;;;;;1.30;99.90;;;;;;5114721;28;19927;-32
2024/01/20 09:52:33;;;;;;;;;;;1.40;99.90;;;;;;5114173;28;19974;-32
2024/01/20 09:55:07;;;;;;;;;;;1.40;99.90;;;;;;5112564;28;19924;-31
2024/01/20 09:57:34;;;;;;;;;;;1.40;99.90;;;;;;5111812;28;19932;-31
2024/01/20 10:00:02;;;;;;;;;;;1.40;99.90;;;;;;5113824;28;20375;-31
2024/01/20 10:02:29;;;;;;;;;;;1.60;99.90;;;;;;5132874;28;19923;-32
2024/01/20 10:04:56;;;;;;;;;;;1.50;99.90;;;;;;5113215;28;19923;-31
2024/01/20 10:07:30;;;;;;;;;;;1.60;99.90;;;;;;5114770;28;19936;-31
2024/01/20 10:09:57;;;;;;;;;;;1.60;99.90;;;;;;5114077;28;20413;-31
2024/01/20 10:12:24;;;;;;;;;;;1.60;99.90;;;;;;5132200;28;19980;-32
2024/01/20 10:14:50;;;;;;;;;;;1.60;99.90;;;;;;5119183;28;19937;-31
2024/01/20 10:17:17;;;;;;;;;;;1.60;99.90;;;;;;5111761;28;19973;-31
2024/01/20 10:19:44;;;;;;;;;;;1.60;99.90;;;;;;5112796;28;20383;-31
2024/01/20 10:22:10;;;;;;;;;;;1.70;99.90;;;;;;5113236;28;19976;-31
2024/01/20 10:24:47;;;;;;;;;;;1.70;99.90;;;;;;5111644;28;19923;-32
2024/01/20 10:27:15;;;;;;;;;;;1.70;99.90;;;;;;5105904;28;19923;-36
2024/01/20 10:29:42;;;;;;;;;;;1.70;99.90;;;;;;5111342;28;19969;-32
2024/01/20 10:32:09;;;;;;;;;;;1.70;99.90;;;;;;5132444;28;19924;-32
2024/01/20 10:34:35;;;;;;;;;;;1.80;99.90;;;;;;5113303;28;19929;-32
2024/01/20 10:37:02;;;;;;;;;;;1.80;99.90;;;;;;5113651;28;19969;-33
2024/01/20 10:39:29;;;;;;;;;;;1.80;99.90;;;;;;5115744;27;19973;-32
2024/01/20 10:41:57;;;;;;;;;;;1.80;99.90;;;;;;5109523;27;19927;-32
2024/01/20 10:44:24;;;;;;;;;;;1.80;99.90;;;;;;5132286;27;19992;-32
2024/01/20 10:46:52;;;;;;;;;;;1.80;99.90;;;;;;5105873;28;19976;-32
2024/01/20 10:49:18;;;;;;;;;;;1.90;99.90;;;;;;5118365;27;19963;-32
2024/01/20 10:51:45;;;;;;;;;;;1.90;99.90;;;;;;5136656;27;20386;-32
2024/01/20 10:54:12;;;;;;;;;;;1.90;99.90;;;;;;5117672;27;19923;-30
2024/01/20 10:56:39;;;;;;;;;;;2.10;99.90;;;;;;5134982;27;19959;-33
2024/01/20 10:59:09;;;;;;;;;;;2.00;99.90;;;;;;5117372;27;20278;-32
2024/01/20 11:01:35;;;;;;;;;;;2.00;99.90;;;;;;5115770;27;19928;-33
2024/01/20 11:04:02;;;;;;;;;;;2.10;99.90;;;;;;5115816;27;19928;-34
2024/01/20 11:06:30;;;;;;;;;;;2.00;99.90;;;;;;5099925;27;20022;-32
2024/01/20 11:08:56;;;;;;;;;;;2.10;99.90;;;;;;5118578;27;19923;-34
2024/01/20 11:11:26;;;;;;;;;;;2.20;99.90;;;;;;5117146;27;19984;-31
2024/01/20 11:13:53;;;;;;;;;;;2.10;99.90;;;;;;5111851;27;19930;-32
2024/01/20 11:16:21;;;;;;;;;;;2.10;99.90;;;;;;5111394;27;19924;-31
2024/01/20 11:18:47;;;;;;;;;;;2.20;99.90;;;;;;5116293;27;19970;-32
2024/01/20 11:21:15;;;;;;;;;;;2.20;99.90;;;;;;5114887;27;20369;-33
2024/01/20 11:23:41;;;;;;;;;;;2.20;99.90;;;;;;5116822;27;19923;-33
2024/01/20 11:26:11;;;;;;;;;;;2.20;99.90;;;;;;5116236;27;20003;-32
2024/01/20 11:28:40;;;;;;;;;;;2.20;99.90;;;;;;5117215;27;19923;-32
2024/01/20 11:31:17;;;;;;;;;;;2.30;99.90;;;;;;5117167;27;20336;-31
2024/01/20 11:33:45;;;;;;;;;;;2.20;99.90;;;;;;5115955;27;19924;-33
2024/01/20 11:36:12;;;;;;;;;;;2.20;99.90;;;;;;5113306;27;19923;-34
2024/01/20 11:38:39;;;;;;;;;;;2.20;99.90;;;;;;5129297;27;20046;-32
2024/01/20 11:41:05;;;;;;;;;;;2.20;99.90;;;;;;5106623;27;19924;-32
2024/01/20 11:43:32;;;;;;;;;;;2.20;99.90;;;;;;5112862;27;19992;-33
2024/01/20 11:45:59;;;;;;;;;;;2.20;99.90;;;;;;5134474;27;19943;-33
2024/01/20 11:48:25;;;;;;;;;;;2.20;99.90;;;;;;5103152;28;19924;-32
2024/01/20 11:50:53;;;;;;;;;;;2.20;99.90;;;;;;5111780;27;19923;-33
2024/01/20 11:53:20;;;;;;;;;;;2.30;99.90;;;;;;5112504;27;20014;-33
2024/01/20 11:55:54;;;;;;;;;;;2.30;99.90;;;;;;5105811;27;19928;-32
2024/01/20 11:58:20;;;;;;;;;;;2.30;99.90;;;;;;5131524;27;19923;-32
2024/01/20 12:00:47;;;;;;;;;;;2.40;99.90;;;;;;5116724;27;19976;-34
2024/01/20 12:03:14;;;;;;;;;;;2.30;99.90;;;;;;5133447;27;20360;-32
2024/01/20 12:05:41;;;;;;;;;;;2.40;99.90;;;;;;5115244;27;19966;-33
2024/01/20 12:08:09;;;;;;;;;;;2.40;99.90;;;;;;5109404;27;19927;-34
2024/01/20 12:10:35;;;;;;;;;;;2.40;99.90;;;;;;5109615;27;19972;-32
2024/01/20 12:13:02;;;;;;;;;;;2.40;99.90;;;;;;5129274;27;19992;-33
2024/01/20 12:15:33;;;;;;;;;;;2.40;99.90;;;;;;5102608;28;20345;-34
2024/01/20 12:17:59;;;;;;;;;;;2.30;99.90;;;;;;5113184;27;19923;-32
2024/01/20 12:20:26;;;;;;;;;;;2.40;99.90;;;;;;5109880;28;20322;-33
2024/01/20 12:22:55;;;;;;;;;;;2.40;99.90;;;;;;5126505;27;19924;-33
2024/01/20 12:25:23;;;;;;;;;;;2.40;99.90;;;;;;5115302;27;19927;-33
2024/01/20 12:27:50;;;;;;;;;;;2.40;99.90;;;;;;5115995;27;19924;-33
2024/01/20 12:30:17;;;;;;;;;;;2.40;99.90;;;;;;5113501;27;19966;-32
2024/01/20 12:32:43;;;;;;;;;;;2.40;99.90;;;;;;5123995;27;19972;-34
2024/01/20 12:35:10;;;;;;;;;;;2.50;99.90;;;;;;5110322;27;19970;-34
2024/01/20 12:37:36;;;;;;;;;;;2.40;99.90;;;;;;5132288;27;19977;-33
2024/01/20 12:40:05;;;;;;;;;;;2.40;99.90;;;;;;5113765;27;19976;-33
2024/01/20 12:42:33;;;;;;;;;;;2.50;99.90;;;;;;5123729;27;20347;-33
2024/01/20 12:45:00;;;;;;;;;;;2.50;99.90;;;;;;5113673;27;19976;-33
2024/01/20 12:47:27;;;;;;;;;;;2.50;99.90;;;;;;5132419;27;20387;-34
2024/01/20 12:49:53;;;;;;;;;;;2.50;99.90;;;;;;5131387;27;19928;-33
2024/01/20 12:52:20;;;;;;;;;;;2.50;99.90;;;;;;5108375;27;19984;-33
2024/01/20 12:54:47;;;;;;;;;;;2.60;99.90;;;;;;5111543;27;20422;-32
2024/01/20 12:57:14;;;;;;;;;;;2.60;99.90;;;;;;5111395;27;19923;-32
2024/01/20 12:59:42;;;;;;;;;;;2.60;99.90;;;;;;5107668;27;19984;-32
2024/01/20 13:02:08;;;;;;;;;;;2.60;99.90;;;;;;5109274;27;19973;-34
2024/01/20 13:04:36;;;;;;;;;;;2.70;99.90;;;;;;5112854;27;19924;-32
2024/01/20 13:07:02;;;;;;;;;;;2.70;99.90;;;;;;5111248;27;19991;-32
2024/01/20 13:09:29;;;;;;;;;;;2.70;99.90;;;;;;5111943;27;19924;-33
2024/01/20 13:11:56;;;;;;;;;;;2.80;99.90;;;;;;5105757;27;19938;-32
2024/01/20 13:14:22;;;;;;;;;;;2.80;99.90;;;;;;5100331;27;19972;-33
2024/01/20 13:16:50;;;;;;;;;;;2.90;99.90;;;;;;5109717;27;19923;-33
2024/01/20 13:19:17;;;;;;;;;;;3.00;99.90;;;;;;5112306;27;19930;-32
2024/01/20 13:21:44;;;;;;;;;;;3.00;99.90;;;;;;5107711;27;20386;-33
2024/01/20 13:24:10;;;;;;;;;;;3.00;99.90;;;;;;5107326;27;20131;-33
2024/01/20 13:26:37;;;;;;;;;;;3.10;99.90;;;;;;5112725;27;19923;-33
2024/01/20 13:29:04;;;;;;;;;;;3.20;99.90;;;;;;5130380;27;20291;-33
2024/01/20 13:31:31;;;;;;;;;;;3.20;99.90;;;;;;5092852;27;19936;-32
2024/01/20 13:33:59;;;;;;;;;;;3.30;99.90;;;;;;5094019;27;20303;-33
2024/01/20 13:36:26;;;;;;;;;;;3.30;99.90;;;;;;5111433;27;19996;-33
2024/01/20 13:38:53;;;;;;;;;;;3.50;99.90;;;;;;5100698;27;19975;-33
2024/01/20 13:41:19;;;;;;;;;;;3.50;99.90;;;;;;5123478;27;19927;-32
2024/01/20 13:43:46;;;;;;;;;;;3.50;99.90;;;;;;5120631;27;20204;-33
2024/01/20 13:46:13;;;;;;;;;;;3.60;99.90;;;;;;5101057;27;19969;-33
2024/01/20 13:48:39;;;;;;;;;;;3.70;99.90;;;;;;5119527;27;20014;-33
2024/01/20 13:51:07;;;;;;;;;;;3.80;99.90;;;;;;5103216;27;20018;-33
2024/01/20 13:53:33;;;;;;;;;;;3.70;99.90;;;;;;5104892;28;19972;-33
2024/01/20 13:56:00;;;;;;;;;;;3.70;99.90;;;;;;5103147;28;20416;-33
2024/01/20 13:58:27;;;;;;;;;;;3.70;99.90;;;;;;5112259;28;19976;-34
2024/01/20 14:00:56;;;;;;;;;;;3.60;99.90;;;;;;5114441;28;19970;-32
2024/01/20 14:03:22;;;;;;;;;;;3.60;99.90;;;;;;5113175;28;20280;-32
2024/01/20 14:05:49;;;;;;;;;;;3.60;99.90;;;;;;5114417;28;20383;-35
2024/01/20 14:08:18;;;;;;;;;;;3.60;99.90;;;;;;5112117;28;19983;-33
2024/01/20 14:10:45;;;;;;;;;;;3.60;99.90;;;;;;5111331;28;19924;-33
2024/01/20 14:13:11;;;;;;;;;;;3.50;99.90;;;;;;5113964;27;19953;-33
2024/01/20 14:15:38;;;;;;;;;;;3.50;99.90;;;;;;5133269;27;20328;-34
2024/01/20 14:18:05;;;;;;;;;;;3.40;99.90;;;;;;5116634;27;19931;-33
2024/01/20 14:20:32;;;;;;;;;;;3.30;99.90;;;;;;5117009;27;19923;-33
2024/01/20 14:22:59;;;;;;;;;;;3.20;99.90;;;;;;5114610;27;20379;-32
2024/01/20 14:25:27;;;;;;;;;;;3.20;99.90;;;;;;5131231;27;19980;-34